sensor_id;sensor_type;location;lat;lon;timestamp;pressure;altitude;pressure_sealevel;temperature;humidity
2397;BME280;1209;48.410;9.054;2023-03-22T00:00:47;96085.25;;;11.53;100.00
2397;BME280;1209;48.410;9.054;2023-03-22T00:03:12;96087.06;;;11.52;100.00
2397;BME280;1209;48.410;9.054;2023-03-22T00:05:38;96082.00;;;11.51;100.00
2397;BME280;1209;48.410;9.054;2023-03-22T00:08:04;96080.13;;;11.45;100.00
2397;BME280;1209;48.410;9.054;2023-03-22T00:10:32;96076.88;;;11.43;100.00
2397;BME280;1209;48.410;9.054;2023-03-22T00:12:58;96068.06;;;11.44;100.00
2397;BME280;1209;48.410;9.054;2023-03-22T00:15:23;96083.31;;;11.40;100.00
2397;BME280;1209;48.410;9.054;2023-03-22T00:17:49;96087.97;;;11.45;100.00
2397;BME280;1209;48.410;9.054;2023-03-22T00:20:14;96075.53;;;11.47;100.00
2397;BME280;1209;48.410;9.054;2023-03-22T00:22:42;96084.91;;;11.41;100.00
2397;BME280;1209;48.410;9.054;2023-03-22T00:25:08;96079.50;;;11.43;100.00
2397;BME280;1209;48.410;9.054;2023-03-22T00:27:33;96072.84;;;11.40;100.00
2397;BME280;1209;48.410;9.054;2023-03-22T00:29:58;96075.72;;;11.30;100.00
2397;BME280;1209;48.410;9.054;2023-03-22T00:32:24;96074.72;;;11.31;100.00
2397;BME280;1209;48.410;9.054;2023-03-22T00:34:49;96077.09;;;11.26;100.00
2397;BME280;1209;48.410;9.054;2023-03-22T00:37:15;96075.88;;;11.08;100.00
2397;BME280;1209;48.410;9.054;2023-03-22T00:39:41;96068.75;;;11.01;100.00
2397;BME280;1209;48.410;9.054;2023-03-22T00:42:06;96073.34;;;10.99;100.00
2397;BME280;1209;48.410;9.054;2023-03-22T00:44:31;96076.59;;;11.01;100.00
2397;BME280;1209;48.410;9.054;2023-03-22T00:46:57;96074.53;;;10.97;100.00
2397;BME280;1209;48.410;9.054;2023-03-22T00:49:22;96072.09;;;10.95;100.00
2397;BME280;1209;48.410;9.054;2023-03-22T00:51:49;96053.34;;;10.62;100.00
2397;BME280;1209;48.410;9.054;2023-03-22T00:54:14;96059.94;;;10.58;100.00
2397;BME280;1209;48.410;9.054;2023-03-22T00:56:41;96055.59;;;10.65;100.00
2397;BME280;1209;48.410;9.054;2023-03-22T00:59:12;96047.59;;;10.67;100.00
2397;BME280;1209;48.410;9.054;2023-03-22T01:01:38;96042.06;;;10.32;100.00
2397;BME280;1209;48.410;9.054;2023-03-22T01:04:04;96041.19;;;10.55;100.00
2397;BME280;1209;48.410;9.054;2023-03-22T01:06:31;96042.06;;;10.32;100.00
2397;BME280;1209;48.410;9.054;2023-03-22T01:08:57;96039.22;;;10.42;100.00
2397;BME280;1209;48.410;9.054;2023-03-22T01:11:22;96039.34;;;10.26;100.00
2397;BME280;1209;48.410;9.054;2023-03-22T01:13:48;96031.34;;;10.27;100.00
2397;BME280;1209;48.410;9.054;2023-03-22T01:16:13;96033.19;;;10.19;100.00
2397;BME280;1209;48.410;9.054;2023-03-22T01:18:39;96040.13;;;9.89;100.00
2397;BME280;1209;48.410;9.054;2023-03-22T01:21:05;96041.56;;;10.14;100.00
2397;BME280;1209;48.410;9.054;2023-03-22T01:23:30;96033.72;;;10.14;100.00
2397;BME280;1209;48.410;9.054;2023-03-22T01:25:56;96028.41;;;10.07;100.00
2397;BME280;1209;48.410;9.054;2023-03-22T01:28:21;96026.72;;;10.15;100.00
2397;BME280;1209;48.410;9.054;2023-03-22T01:30:47;96018.16;;;10.06;100.00
2397;BME280;1209;48.410;9.054;2023-03-22T01:33:12;96018.91;;;9.92;100.00
2397;BME280;1209;48.410;9.054;2023-03-22T01:35:38;96019.41;;;9.72;100.00
2397;BME280;1209;48.410;9.054;2023-03-22T01:38:03;96024.13;;;9.54;100.00
2397;BME280;1209;48.410;9.054;2023-03-22T01:40:29;96016.66;;;9.51;100.00
2397;BME280;1209;48.410;9.054;2023-03-22T01:42:55;96012.41;;;9.50;100.00
2397;BME280;1209;48.410;9.054;2023-03-22T01:45:42;96019.31;;;9.66;100.00
2397;BME280;1209;48.410;9.054;2023-03-22T01:48:22;96010.50;;;9.67;100.00
2397;BME280;1209;48.410;9.054;2023-03-22T01:51:29;96015.88;;;9.65;100.00
2397;BME280;1209;48.410;9.054;2023-03-22T01:53:51;96013.28;;;9.65;100.00
2397;BME280;1209;48.410;9.054;2023-03-22T01:56:21;96013.59;;;9.39;100.00
2397;BME280;1209;48.410;9.054;2023-03-22T01:58:48;96012.44;;;9.42;100.00
2397;BME280;1209;48.410;9.054;2023-03-22T02:01:15;96003.44;;;9.53;100.00
2397;BME280;1209;48.410;9.054;2023-03-22T02:03:46;95987.72;;;9.38;100.00
2397;BME280;1209;48.410;9.054;2023-03-22T02:06:12;95995.78;;;9.28;100.00
2397;BME280;1209;48.410;9.054;2023-03-22T02:08:38;95992.28;;;9.36;100.00
2397;BME280;1209;48.410;9.054;2023-03-22T02:11:05;95993.03;;;9.44;100.00
2397;BME280;1209;48.410;9.054;2023-03-22T02:19:41;95989.81;;;9.20;100.00
2397;BME280;1209;48.410;9.054;2023-03-22T02:25:20;95986.84;;;9.00;100.00
2397;BME280;1209;48.410;9.054;2023-03-22T02:39:55;95978.13;;;8.45;100.00
2397;BME280;1209;48.410;9.054;2023-03-22T02:48:02;95973.28;;;8.26;100.00
2397;BME280;1209;48.410;9.054;2023-03-22T02:50:46;95974.09;;;8.35;100.00
2397;BME280;1209;48.410;9.054;2023-03-22T02:53:33;95978.47;;;8.34;100.00
2397;BME280;1209;48.410;9.054;2023-03-22T02:56:11;95982.69;;;8.43;100.00
2397;BME280;1209;48.410;9.054;2023-03-22T02:58:40;95977.81;;;8.32;100.00
2397;BME280;1209;48.410;9.054;2023-03-22T03:01:13;95985.03;;;8.06;100.00
2397;BME280;1209;48.410;9.054;2023-03-22T03:03:46;95978.53;;;8.02;100.00
2397;BME280;1209;48.410;9.054;2023-03-22T03:06:16;95978.34;;;8.03;100.00
2397;BME280;1209;48.410;9.054;2023-03-22T03:08:43;95979.69;;;8.07;100.00
2397;BME280;1209;48.410;9.054;2023-03-22T03:11:11;95969.06;;;8.17;100.00
2397;BME280;1209;48.410;9.054;2023-03-22T03:13:36;95979.03;;;7.97;100.00
2397;BME280;1209;48.410;9.054;2023-03-22T03:16:02;95975.28;;;8.08;100.00
2397;BME280;1209;48.410;9.054;2023-03-22T03:18:46;95978.88;;;8.07;100.00
2397;BME280;1209;48.410;9.054;2023-03-22T03:24:16;95984.56;;;7.94;100.00
2397;BME280;1209;48.410;9.054;2023-03-22T03:27:03;95976.41;;;7.97;100.00
2397;BME280;1209;48.410;9.054;2023-03-22T03:29:43;95974.16;;;7.94;100.00
2397;BME280;1209;48.410;9.054;2023-03-22T03:32:20;95979.69;;;7.91;100.00
2397;BME280;1209;48.410;9.054;2023-03-22T03:34:53;95986.03;;;7.88;100.00
2397;BME280;1209;48.410;9.054;2023-03-22T03:37:34;95982.78;;;7.78;100.00
2397;BME280;1209;48.410;9.054;2023-03-22T03:40:11;95984.75;;;7.76;100.00
2397;BME280;1209;48.410;9.054;2023-03-22T03:42:40;95989.47;;;7.73;100.00
2397;BME280;1209;48.410;9.054;2023-03-22T03:45:08;95995.31;;;7.67;100.00
2397;BME280;1209;48.410;9.054;2023-03-22T03:47:34;95989.75;;;7.29;100.00
2397;BME280;1209;48.410;9.054;2023-03-22T03:50:02;95995.94;;;7.52;100.00
2397;BME280;1209;48.410;9.054;2023-03-22T03:52:27;95996.25;;;7.33;100.00
2397;BME280;1209;48.410;9.054;2023-03-22T03:54:53;95994.16;;;7.37;100.00
2397;BME280;1209;48.410;9.054;2023-03-22T03:57:19;95999.66;;;7.42;100.00
2397;BME280;1209;48.410;9.054;2023-03-22T03:59:44;95999.66;;;7.42;100.00
2397;BME280;1209;48.410;9.054;2023-03-22T04:02:09;96010.56;;;7.53;100.00
2397;BME280;1209;48.410;9.054;2023-03-22T04:04:35;96003.09;;;7.50;100.00
2397;BME280;1209;48.410;9.054;2023-03-22T04:07:03;96000.16;;;7.37;100.00
2397;BME280;1209;48.410;9.054;2023-03-22T04:09:31;96011.19;;;7.23;100.00
2397;BME280;1209;48.410;9.054;2023-03-22T04:11:57;96013.13;;;7.29;100.00
2397;BME280;1209;48.410;9.054;2023-03-22T04:14:23;96013.44;;;7.18;100.00
2397;BME280;1209;48.410;9.054;2023-03-22T04:16:49;96010.63;;;6.95;100.00
2397;BME280;1209;48.410;9.054;2023-03-22T04:19:14;96004.78;;;7.01;100.00
2397;BME280;1209;48.410;9.054;2023-03-22T04:21:40;96006.69;;;6.75;100.00
2397;BME280;1209;48.410;9.054;2023-03-22T04:24:06;96007.53;;;6.49;100.00
2397;BME280;1209;48.410;9.054;2023-03-22T04:26:32;96005.75;;;6.50;100.00
2397;BME280;1209;48.410;9.054;2023-03-22T04:28:57;96009.47;;;6.47;100.00
2397;BME280;1209;48.410;9.054;2023-03-22T04:31:24;96001.97;;;6.36;100.00
2397;BME280;1209;48.410;9.054;2023-03-22T04:33:50;95997.59;;;6.37;100.00
2397;BME280;1209;48.410;9.054;2023-03-22T04:36:22;95991.31;;;6.47;100.00
2397;BME280;1209;48.410;9.054;2023-03-22T04:38:48;95993.03;;;6.30;100.00
2397;BME280;1209;48.410;9.054;2023-03-22T04:41:14;95991.09;;;6.32;100.00
2397;BME280;1209;48.410;9.054;2023-03-22T04:43:40;95987.34;;;6.27;100.00
2397;BME280;1209;48.410;9.054;2023-03-22T04:46:06;95987.28;;;6.53;100.00
2397;BME280;1209;48.410;9.054;2023-03-22T04:48:35;95989.91;;;6.61;100.00
2397;BME280;1209;48.410;9.054;2023-03-22T04:51:00;95989.25;;;6.59;100.00
2397;BME280;1209;48.410;9.054;2023-03-22T04:53:28;95977.69;;;6.45;100.00
2397;BME280;1209;48.410;9.054;2023-03-22T04:55:54;95979.75;;;6.34;100.00
2397;BME280;1209;48.410;9.054;2023-03-22T04:58:24;95976.41;;;6.49;100.00
2397;BME280;1209;48.410;9.054;2023-03-22T05:00:50;95972.66;;;6.10;100.00
2397;BME280;1209;48.410;9.054;2023-03-22T05:03:17;95966.63;;;6.01;100.00
2397;BME280;1209;48.410;9.054;2023-03-22T05:08:16;95969.06;;;6.03;100.00
2397;BME280;1209;48.410;9.054;2023-03-22T05:10:42;95960.09;;;6.23;100.00
2397;BME280;1209;48.410;9.054;2023-03-22T05:13:07;95958.56;;;6.12;100.00
2397;BME280;1209;48.410;9.054;2023-03-22T05:15:32;95956.53;;;6.24;100.00
2397;BME280;1209;48.410;9.054;2023-03-22T05:17:58;95957.09;;;6.44;100.00
2397;BME280;1209;48.410;9.054;2023-03-22T05:20:23;95948.47;;;6.35;100.00
2397;BME280;1209;48.410;9.054;2023-03-22T05:22:49;95955.78;;;6.40;100.00
2397;BME280;1209;48.410;9.054;2023-03-22T05:25:14;95949.16;;;6.45;100.00
2397;BME280;1209;48.410;9.054;2023-03-22T05:27:40;95945.75;;;6.45;100.00
2397;BME280;1209;48.410;9.054;2023-03-22T05:30:06;95953.38;;;6.46;100.00
2397;BME280;1209;48.410;9.054;2023-03-22T05:32:31;95945.09;;;6.43;100.00
2397;BME280;1209;48.410;9.054;2023-03-22T05:34:57;95948.81;;;6.40;100.00
2397;BME280;1209;48.410;9.054;2023-03-22T05:37:22;95942.47;;;6.35;100.00
2397;BME280;1209;48.410;9.054;2023-03-22T05:39:47;95942.59;;;6.25;100.00
2397;BME280;1209;48.410;9.054;2023-03-22T05:42:12;95947.50;;;6.36;100.00
2397;BME280;1209;48.410;9.054;2023-03-22T05:44:38;95940.72;;;6.43;100.00
2397;BME280;1209;48.410;9.054;2023-03-22T05:47:03;95941.16;;;6.30;100.00
2397;BME280;1209;48.410;9.054;2023-03-22T05:49:31;95942.44;;;5.92;100.00
2397;BME280;1209;48.410;9.054;2023-03-22T05:51:56;95938.13;;;6.09;100.00
2397;BME280;1209;48.410;9.054;2023-03-22T05:54:22;95937.94;;;5.77;100.00
2397;BME280;1209;48.410;9.054;2023-03-22T05:56:47;95946.38;;;6.05;100.00
2397;BME280;1209;48.410;9.054;2023-03-22T05:59:12;95936.50;;;6.08;100.00
2397;BME280;1209;48.410;9.054;2023-03-22T06:01:37;95940.94;;;6.16;100.00
2397;BME280;1209;48.410;9.054;2023-03-22T06:04:03;95935.00;;;6.23;100.00
2397;BME280;1209;48.410;9.054;2023-03-22T06:06:28;95926.13;;;6.00;100.00
2397;BME280;1209;48.410;9.054;2023-03-22T06:08:54;95933.69;;;6.19;100.00
2397;BME280;1209;48.410;9.054;2023-03-22T06:11:20;95937.75;;;6.22;100.00
2397;BME280;1209;48.410;9.054;2023-03-22T06:13:46;95938.50;;;6.14;100.00
2397;BME280;1209;48.410;9.054;2023-03-22T06:16:12;95933.22;;;6.24;100.00
2397;BME280;1209;48.410;9.054;2023-03-22T06:18:37;95942.63;;;6.33;100.00
2397;BME280;1209;48.410;9.054;2023-03-22T06:21:02;95943.06;;;6.20;100.00
2397;BME280;1209;48.410;9.054;2023-03-22T06:23:28;95945.38;;;6.31;100.00
2397;BME280;1209;48.410;9.054;2023-03-22T06:25:53;95943.09;;;6.28;100.00
2397;BME280;1209;48.410;9.054;2023-03-22T06:28:18;95939.13;;;6.50;100.00
2397;BME280;1209;48.410;9.054;2023-03-22T06:30:44;95939.16;;;6.58;100.00
2397;BME280;1209;48.410;9.054;2023-03-22T06:33:09;95941.94;;;6.65;100.00
2397;BME280;1209;48.410;9.054;2023-03-22T06:35:35;95938.25;;;6.76;100.00
2397;BME280;1209;48.410;9.054;2023-03-22T06:38:00;95941.97;;;6.81;100.00
2397;BME280;1209;48.410;9.054;2023-03-22T06:40:25;95945.88;;;6.93;100.00
2397;BME280;1209;48.410;9.054;2023-03-22T06:42:51;95947.03;;;7.07;100.00
2397;BME280;1209;48.410;9.054;2023-03-22T06:45:18;95944.00;;;7.20;100.00
2397;BME280;1209;48.410;9.054;2023-03-22T06:47:43;95951.13;;;7.34;100.00
2397;BME280;1209;48.410;9.054;2023-03-22T06:50:09;95956.81;;;7.46;100.00
2397;BME280;1209;48.410;9.054;2023-03-22T06:52:35;95961.53;;;7.58;100.00
2397;BME280;1209;48.410;9.054;2023-03-22T06:55:00;95964.13;;;7.75;100.00
2397;BME280;1209;48.410;9.054;2023-03-22T06:57:26;95970.56;;;7.95;100.00
2397;BME280;1209;48.410;9.054;2023-03-22T06:59:51;95972.50;;;8.17;100.00
2397;BME280;1209;48.410;9.054;2023-03-22T07:02:16;95974.75;;;8.20;100.00
2397;BME280;1209;48.410;9.054;2023-03-22T07:04:41;95986.94;;;8.28;100.00
2397;BME280;1209;48.410;9.054;2023-03-22T07:07:07;95974.25;;;8.25;100.00
2397;BME280;1209;48.410;9.054;2023-03-22T07:09:32;95977.97;;;8.39;100.00
2397;BME280;1209;48.410;9.054;2023-03-22T07:11:57;95974.69;;;8.53;100.00
2397;BME280;1209;48.410;9.054;2023-03-22T07:14:23;95974.41;;;8.79;100.00
2397;BME280;1209;48.410;9.054;2023-03-22T07:16:48;95966.81;;;9.00;100.00
2397;BME280;1209;48.410;9.054;2023-03-22T07:19:13;95966.31;;;9.28;100.00
2397;BME280;1209;48.410;9.054;2023-03-22T07:21:39;95965.31;;;9.52;100.00
2397;BME280;1209;48.410;9.054;2023-03-22T07:24:05;95967.78;;;9.68;100.00
2397;BME280;1209;48.410;9.054;2023-03-22T07:26:31;95969.22;;;9.93;100.00
2397;BME280;1209;48.410;9.054;2023-03-22T07:28:57;95961.84;;;10.12;100.00
2397;BME280;1209;48.410;9.054;2023-03-22T07:31:22;95955.75;;;10.34;100.00
2397;BME280;1209;48.410;9.054;2023-03-22T07:33:47;95959.91;;;10.58;100.00
2397;BME280;1209;48.410;9.054;2023-03-22T07:36:13;95964.19;;;10.80;100.00
2397;BME280;1209;48.410;9.054;2023-03-22T07:38:38;95962.81;;;10.99;100.00
2397;BME280;1209;48.410;9.054;2023-03-22T07:41:04;95960.94;;;11.14;100.00
2397;BME280;1209;48.410;9.054;2023-03-22T07:43:30;95967.88;;;11.43;100.00
2397;BME280;1209;48.410;9.054;2023-03-22T07:45:56;95967.28;;;11.69;100.00
2397;BME280;1209;48.410;9.054;2023-03-22T07:48:21;95966.31;;;11.91;100.00
2397;BME280;1209;48.410;9.054;2023-03-22T07:50:47;95968.41;;;12.03;100.00
2397;BME280;1209;48.410;9.054;2023-03-22T07:53:12;95968.91;;;12.19;100.00
2397;BME280;1209;48.410;9.054;2023-03-22T07:55:38;95975.09;;;12.40;100.00
2397;BME280;1209;48.410;9.054;2023-03-22T07:58:06;95976.44;;;12.70;100.00
2397;BME280;1209;48.410;9.054;2023-03-22T08:00:31;95970.69;;;12.88;100.00
2397;BME280;1209;48.410;9.054;2023-03-22T08:02:57;95974.97;;;13.02;100.00
2397;BME280;1209;48.410;9.054;2023-03-22T08:05:23;95971.06;;;13.26;98.48
2397;BME280;1209;48.410;9.054;2023-03-22T08:07:49;95977.34;;;13.51;97.42
2397;BME280;1209;48.410;9.054;2023-03-22T08:10:16;95970.94;;;13.94;94.15
2397;BME280;1209;48.410;9.054;2023-03-22T08:12:42;95975.34;;;14.26;96.60
2397;BME280;1209;48.410;9.054;2023-03-22T08:15:08;95964.63;;;14.34;93.70
2397;BME280;1209;48.410;9.054;2023-03-22T08:17:33;95963.38;;;14.57;90.75
2397;BME280;1209;48.410;9.054;2023-03-22T08:19:59;95964.16;;;14.64;89.73
2397;BME280;1209;48.410;9.054;2023-03-22T08:22:24;95964.16;;;14.64;92.53
2397;BME280;1209;48.410;9.054;2023-03-22T08:24:53;95959.75;;;14.58;90.41
2397;BME280;1209;48.410;9.054;2023-03-22T08:27:19;95960.13;;;14.61;90.91
2397;BME280;1209;48.410;9.054;2023-03-22T08:29:45;95958.09;;;14.76;89.20
2397;BME280;1209;48.410;9.054;2023-03-22T08:32:11;95965.22;;;15.07;89.66
2397;BME280;1209;48.410;9.054;2023-03-22T08:34:38;95966.91;;;15.33;86.74
2397;BME280;1209;48.410;9.054;2023-03-22T08:37:05;95971.28;;;15.46;85.92
2397;BME280;1209;48.410;9.054;2023-03-22T08:39:30;95978.28;;;15.27;86.50
2397;BME280;1209;48.410;9.054;2023-03-22T08:41:56;95972.44;;;15.25;88.05
2397;BME280;1209;48.410;9.054;2023-03-22T08:44:21;95978.47;;;15.32;85.72
2397;BME280;1209;48.410;9.054;2023-03-22T08:46:46;95973.25;;;15.57;84.66
2397;BME280;1209;48.410;9.054;2023-03-22T08:49:12;95969.03;;;15.50;83.53
2397;BME280;1209;48.410;9.054;2023-03-22T08:51:39;95976.38;;;15.79;83.66
2397;BME280;1209;48.410;9.054;2023-03-22T08:54:04;95967.78;;;15.65;82.44
2397;BME280;1209;48.410;9.054;2023-03-22T08:56:29;95961.31;;;15.61;82.30
2397;BME280;1209;48.410;9.054;2023-03-22T08:58:56;95973.78;;;15.72;82.13
2397;BME280;1209;48.410;9.054;2023-03-22T09:01:21;95967.38;;;15.55;82.07
2397;BME280;1209;48.410;9.054;2023-03-22T09:03:47;95963.97;;;15.86;82.74
2397;BME280;1209;48.410;9.054;2023-03-22T09:06:13;95955.34;;;15.97;79.20
2397;BME280;1209;48.410;9.054;2023-03-22T09:08:39;95959.38;;;16.00;76.80
2397;BME280;1209;48.410;9.054;2023-03-22T09:11:07;95963.13;;;16.35;76.09
2397;BME280;1209;48.410;9.054;2023-03-22T09:13:33;95955.06;;;16.30;76.84
2397;BME280;1209;48.410;9.054;2023-03-22T09:15:58;95953.53;;;16.23;73.70
2397;BME280;1209;48.410;9.054;2023-03-22T09:18:24;95957.72;;;16.30;74.50
2397;BME280;1209;48.410;9.054;2023-03-22T09:20:50;95948.34;;;16.34;74.58
2397;BME280;1209;48.410;9.054;2023-03-22T09:23:16;95954.09;;;16.68;73.21
2397;BME280;1209;48.410;9.054;2023-03-22T09:25:45;95949.63;;;16.87;71.15
2397;BME280;1209;48.410;9.054;2023-03-22T09:28:15;95954.31;;;16.66;70.94
2397;BME280;1209;48.410;9.054;2023-03-22T09:30:41;95951.00;;;16.89;69.79
2397;BME280;1209;48.410;9.054;2023-03-22T09:33:07;95941.69;;;17.35;70.17
2397;BME280;1209;48.410;9.054;2023-03-22T09:35:32;95942.03;;;17.69;68.46
2397;BME280;1209;48.410;9.054;2023-03-22T09:37:58;95945.38;;;17.76;67.34
2397;BME280;1209;48.410;9.054;2023-03-22T09:40:26;95941.41;;;17.55;66.42
2397;BME280;1209;48.410;9.054;2023-03-22T09:42:54;95939.72;;;17.60;66.48
2397;BME280;1209;48.410;9.054;2023-03-22T09:45:25;95930.50;;;17.51;66.43
2397;BME280;1209;48.410;9.054;2023-03-22T09:47:57;95935.66;;;18.11;67.54
2397;BME280;1209;48.410;9.054;2023-03-22T09:50:41;95931.75;;;18.25;67.38
2397;BME280;1209;48.410;9.054;2023-03-22T09:53:12;95920.94;;;18.39;65.34
2397;BME280;1209;48.410;9.054;2023-03-22T09:55:43;95918.44;;;18.20;63.74
2397;BME280;1209;48.410;9.054;2023-03-22T09:58:32;95921.06;;;17.97;63.32
2397;BME280;1209;48.410;9.054;2023-03-22T10:01:05;95921.88;;;17.98;64.50
2397;BME280;1209;48.410;9.054;2023-03-22T10:04:04;95918.41;;;18.44;66.64
2397;BME280;1209;48.410;9.054;2023-03-22T10:06:31;95911.94;;;18.75;63.23
2397;BME280;1209;48.410;9.054;2023-03-22T10:09:04;95914.19;;;18.95;61.74
2397;BME280;1209;48.410;9.054;2023-03-22T10:11:41;95910.44;;;18.79;60.77
2397;BME280;1209;48.410;9.054;2023-03-22T10:14:41;95906.25;;;18.95;59.85
2397;BME280;1209;48.410;9.054;2023-03-22T10:17:12;95903.66;;;19.11;62.09
2397;BME280;1209;48.410;9.054;2023-03-22T10:20:01;95901.44;;;18.80;57.09
2397;BME280;1209;48.410;9.054;2023-03-22T10:22:33;95896.66;;;19.05;56.33
2397;BME280;1209;48.410;9.054;2023-03-22T10:25:00;95887.47;;;19.53;56.39
2397;BME280;1209;48.410;9.054;2023-03-22T10:27:28;95892.69;;;19.81;55.56
2397;BME280;1209;48.410;9.054;2023-03-22T10:30:21;95872.94;;;19.72;56.78
2397;BME280;1209;48.410;9.054;2023-03-22T10:32:58;95882.19;;;19.53;55.51
2397;BME280;1209;48.410;9.054;2023-03-22T10:35:25;95872.19;;;19.43;56.40
2397;BME280;1209;48.410;9.054;2023-03-22T10:37:51;95880.00;;;19.84;56.36
2397;BME280;1209;48.410;9.054;2023-03-22T10:40:23;95877.44;;;19.55;56.46
2397;BME280;1209;48.410;9.054;2023-03-22T10:42:53;95878.00;;;19.29;56.29
2397;BME280;1209;48.410;9.054;2023-03-22T10:45:20;95874.53;;;19.57;57.10
2397;BME280;1209;48.410;9.054;2023-03-22T10:47:51;95874.00;;;19.55;54.49
2397;BME280;1209;48.410;9.054;2023-03-22T10:50:21;95883.38;;;19.79;52.81
2397;BME280;1209;48.410;9.054;2023-03-22T10:53:00;95874.34;;;20.13;51.91
2397;BME280;1209;48.410;9.054;2023-03-22T10:55:27;95867.69;;;20.33;51.89
2397;BME280;1209;48.410;9.054;2023-03-22T10:58:10;95867.75;;;20.55;53.16
2397;BME280;1209;48.410;9.054;2023-03-22T11:00:36;95872.84;;;21.05;52.16
2397;BME280;1209;48.410;9.054;2023-03-22T11:03:04;95866.38;;;20.96;50.09
2397;BME280;1209;48.410;9.054;2023-03-22T11:05:29;95867.88;;;21.14;50.82
2397;BME280;1209;48.410;9.054;2023-03-22T11:07:56;95865.97;;;20.60;49.94
2397;BME280;1209;48.410;9.054;2023-03-22T11:10:28;95862.31;;;21.15;51.65
2397;BME280;1209;48.410;9.054;2023-03-22T11:15:38;95848.81;;;20.90;51.22
2397;BME280;1209;48.410;9.054;2023-03-22T11:18:13;95848.31;;;20.71;50.59
2397;BME280;1209;48.410;9.054;2023-03-22T11:20:42;95862.69;;;21.51;51.15
2397;BME280;1209;48.410;9.054;2023-03-22T11:23:18;95854.03;;;21.65;51.08
2397;BME280;1209;48.410;9.054;2023-03-22T11:25:49;95855.56;;;21.02;50.68
2397;BME280;1209;48.410;9.054;2023-03-22T11:28:21;95854.78;;;20.36;51.90
2397;BME280;1209;48.410;9.054;2023-03-22T11:31:09;95849.00;;;20.23;52.41
2397;BME280;1209;48.410;9.054;2023-03-22T11:33:36;95837.84;;;20.21;50.78
2397;BME280;1209;48.410;9.054;2023-03-22T11:36:04;95845.59;;;20.66;49.16
2397;BME280;1209;48.410;9.054;2023-03-22T11:38:40;95838.88;;;21.29;48.53
2397;BME280;1209;48.410;9.054;2023-03-22T11:41:11;95828.75;;;21.63;48.21
2397;BME280;1209;48.410;9.054;2023-03-22T11:43:39;95822.38;;;22.01;45.55
2397;BME280;1209;48.410;9.054;2023-03-22T11:46:08;95829.31;;;22.02;48.47
2397;BME280;1209;48.410;9.054;2023-03-22T11:48:35;95825.84;;;22.02;48.95
2397;BME280;1209;48.410;9.054;2023-03-22T11:51:10;95814.84;;;21.83;48.01
2397;BME280;1209;48.410;9.054;2023-03-22T11:53:38;95823.63;;;21.51;46.74
2397;BME280;1209;48.410;9.054;2023-03-22T11:56:07;95819.59;;;21.44;48.17
2397;BME280;1209;48.410;9.054;2023-03-22T11:58:43;95818.13;;;21.04;47.44
2397;BME280;1209;48.410;9.054;2023-03-22T12:01:14;95812.25;;;20.31;45.84
2397;BME280;1209;48.410;9.054;2023-03-22T12:03:42;95804.19;;;20.21;46.16
2397;BME280;1209;48.410;9.054;2023-03-22T12:06:27;95809.41;;;20.16;44.74
2397;BME280;1209;48.410;9.054;2023-03-22T12:09:04;95799.31;;;20.13;43.98
2397;BME280;1209;48.410;9.054;2023-03-22T12:11:44;95800.84;;;20.31;43.34
2397;BME280;1209;48.410;9.054;2023-03-22T12:14:27;95796.59;;;20.30;42.81
2397;BME280;1209;48.410;9.054;2023-03-22T12:17:05;95784.81;;;20.64;42.09
2397;BME280;1209;48.410;9.054;2023-03-22T12:19:57;95791.38;;;21.11;44.91
2397;BME280;1209;48.410;9.054;2023-03-22T12:22:32;95792.88;;;21.01;44.88
2397;BME280;1209;48.410;9.054;2023-03-22T12:24:58;95790.00;;;21.30;45.56
2397;BME280;1209;48.410;9.054;2023-03-22T12:27:32;95783.13;;;21.07;44.75
2397;BME280;1209;48.410;9.054;2023-03-22T12:30:05;95779.03;;;20.94;46.16
2397;BME280;1209;48.410;9.054;2023-03-22T12:33:08;95782.59;;;20.12;45.65
2397;BME280;1209;48.410;9.054;2023-03-22T12:35:38;95790.16;;;20.26;46.97
2397;BME280;1209;48.410;9.054;2023-03-22T12:38:16;95785.00;;;20.58;46.96
2397;BME280;1209;48.410;9.054;2023-03-22T12:40:45;95788.13;;;21.03;46.48
2397;BME280;1209;48.410;9.054;2023-03-22T12:46:04;95782.50;;;21.59;43.75
2397;BME280;1209;48.410;9.054;2023-03-22T12:51:06;95786.97;;;21.95;42.71
2397;BME280;1209;48.410;9.054;2023-03-22T12:53:40;95775.47;;;22.27;43.87
2397;BME280;1209;48.410;9.054;2023-03-22T12:56:09;95787.72;;;22.28;45.48
2397;BME280;1209;48.410;9.054;2023-03-22T12:58:35;95771.00;;;21.90;43.87
2397;BME280;1209;48.410;9.054;2023-03-22T13:01:16;95770.59;;;22.09;44.20
2397;BME280;1209;48.410;9.054;2023-03-22T13:03:47;95774.59;;;22.11;43.59
2397;BME280;1209;48.410;9.054;2023-03-22T13:09:13;95755.41;;;22.04;43.39
2397;BME280;1209;48.410;9.054;2023-03-22T13:11:43;95767.81;;;22.41;44.23
2397;BME280;1209;48.410;9.054;2023-03-22T13:14:52;95763.81;;;22.38;43.60
2397;BME280;1209;48.410;9.054;2023-03-22T13:16:58;95762.00;;;22.64;43.36
2397;BME280;1209;48.410;9.054;2023-03-22T13:19:35;95756.88;;;22.32;42.38
2397;BME280;1209;48.410;9.054;2023-03-22T13:22:26;95756.34;;;22.35;43.52
2397;BME280;1209;48.410;9.054;2023-03-22T13:28:02;95743.72;;;21.63;41.46
2397;BME280;1209;48.410;9.054;2023-03-22T13:30:34;95751.31;;;21.44;41.84
2397;BME280;1209;48.410;9.054;2023-03-22T13:35:44;95740.47;;;21.56;42.91
2397;BME280;1209;48.410;9.054;2023-03-22T13:38:28;95743.72;;;21.63;43.02
2397;BME280;1209;48.410;9.054;2023-03-22T13:41:04;95738.38;;;21.58;42.20
2397;BME280;1209;48.410;9.054;2023-03-22T13:48:51;95735.91;;;21.46;44.04
2397;BME280;1209;48.410;9.054;2023-03-22T13:59:11;95723.13;;;20.52;43.19
2397;BME280;1209;48.410;9.054;2023-03-22T14:01:50;95718.47;;;20.64;43.78
2397;BME280;1209;48.410;9.054;2023-03-22T14:04:22;95723.19;;;20.84;44.83
2397;BME280;1209;48.410;9.054;2023-03-22T14:06:54;95723.53;;;20.66;42.81
2397;BME280;1209;48.410;9.054;2023-03-22T14:09:27;95720.91;;;20.71;42.78
2397;BME280;1209;48.410;9.054;2023-03-22T14:12:21;95713.88;;;20.55;44.37
2397;BME280;1209;48.410;9.054;2023-03-22T14:14:55;95712.31;;;20.59;43.61
2397;BME280;1209;48.410;9.054;2023-03-22T14:17:41;95710.00;;;20.67;44.16
2397;BME280;1209;48.410;9.054;2023-03-22T14:20:12;95707.97;;;20.48;43.47
2397;BME280;1209;48.410;9.054;2023-03-22T14:22:43;95706.59;;;20.23;43.80
2397;BME280;1209;48.410;9.054;2023-03-22T14:25:16;95701.56;;;20.22;44.18
2397;BME280;1209;48.410;9.054;2023-03-22T14:27:42;95709.41;;;20.11;45.34
2397;BME280;1209;48.410;9.054;2023-03-22T14:30:28;95707.06;;;19.93;43.87
2397;BME280;1209;48.410;9.054;2023-03-22T14:33:04;95711.66;;;19.81;44.23